Sharps, VA (22548)

3:53 AM EST on December 05, 2016 (GMT -0500)
Settlers Landing | | Change Station

Elev 43 ft 37.93 °N, 76.71 °W | Updated 20 seconds ago

Rain
Rain
42.8 °F
Feels Like 43 °F
N
0.0
Wind Variable Wind from SSE
Gusts 0.0 mph

Today
High -- | Low -- °F
--% Chance of Precip.
Yesterday
High -- | Low -- °F
Precip. -- in
Pressure 30.06 in
Visibility 5.0 miles
Clouds Overcast 300 ft
Windchill 43 °F
Dew Point 42 °F
Humidity 95%
Rainfall 0.27 in
Snow Depth Not available.
7:07 AM 4:47 PM
Waxing Crescent, 30% visible
METAR KXSA 050835Z AUTO 19003KT 5SM RA OVC003 05/05 A3006 RMK AO2 T00530053
Pressure 30.06 in
Visibility 5.0 miles
Clouds Overcast 300 ft
Windchill 43 °F
Dew Point 42 °F
Humidity 95%
Rainfall 0.27 in
Snow Depth Not available.
7:07 AM 4:47 PM
Waxing Crescent, 30% visible
METAR KXSA 050835Z AUTO 19003KT 5SM RA OVC003 05/05 A3006 RMK AO2 T00530053

10-Day Weather Forecast

Almanac

Astronomy

Dec. 05, 2016 Rise Set
Actual Time
Civil Twilight
Nautical Twilight
Astronomical Twilight
Moon
Length of Visible Light
Length of Day
Tomorrow will be .
, % of the Moon is Illuminated

Today's Extremes

State Highs State Lows

Community

WunderPhotos

Upload Photos

1,955,771 photos uploaded!

WunderBlog® & News

Nearby

Air Quality

  Air Quality AQ Index Pollutant
Not available.

Snow Depth

Station Depth Elevation

Earthquake Activity

City Distance Mag. Time & Date
Minimum magnitude displayed is 2.5.

Coastal Water Temperatures

Place Temperature

Stations

Nearby Weather Stations

Station Location Temp. Windchill Dew Point Humidity Wind Precip. Elev Updated Type
                   

Watches & Warnings

There are currently no watches in effect.